createdAt,value
2022-07-30T00:00:23.844Z,69420.06
2022-07-30T00:02:52.966Z,69402.78
2022-07-30T00:05:20.298Z,69380.28
2022-07-30T00:07:47.509Z,69382.59
2022-07-30T00:10:14.694Z,69372.69
2022-07-30T00:12:41.730Z,69344.13
2022-07-30T00:15:09.026Z,69325.13
2022-07-30T00:17:36.048Z,69307.78
2022-07-30T00:20:03.179Z,69291.09
2022-07-30T00:22:30.648Z,69278.88
2022-07-30T00:24:57.737Z,69269.22
2022-07-30T00:27:24.919Z,69258.53
2022-07-30T00:29:51.887Z,69254.38
2022-07-30T00:32:19.123Z,69245.84
2022-07-30T00:34:46.420Z,69236.31
2022-07-30T00:37:13.518Z,69230.44
2022-07-30T00:39:40.580Z,69214.81
2022-07-30T00:42:07.750Z,69214.63
2022-07-30T00:44:35.360Z,69207.63
2022-07-30T00:47:02.861Z,69200.78
2022-07-30T00:49:30.448Z,69183.03
2022-07-30T00:51:57.673Z,69168.44
2022-07-30T00:54:24.642Z,69171.31
2022-07-30T00:56:51.829Z,69157.22
2022-07-30T00:59:18.825Z,69162.00
2022-07-30T01:01:45.920Z,69158.34
2022-07-30T01:04:12.985Z,69149.06
2022-07-30T01:06:40.381Z,69150.19
2022-07-30T01:09:07.803Z,69145.63
2022-07-30T01:11:38.857Z,69147.91
2022-07-30T01:14:07.109Z,69134.81
2022-07-30T01:16:35.258Z,69130.06
2022-07-30T01:19:26.309Z,69122.09
2022-07-30T01:22:03.565Z,69101.19
2022-07-30T01:24:35.155Z,69094.91
2022-07-30T01:27:02.735Z,69098.91
2022-07-30T01:29:32.802Z,69093.38
2022-07-30T01:32:00.425Z,69085.22
2022-07-30T01:34:28.925Z,69080.66
2022-07-30T01:36:57.498Z,69079.34
2022-07-30T01:39:26.346Z,69072.88
2022-07-30T01:41:54.991Z,69080.66
2022-07-30T01:44:24.220Z,69077.44
2022-07-30T01:46:53.504Z,69085.63
2022-07-30T01:49:21.911Z,69074.22
2022-07-30T01:51:50.588Z,69067.75
2022-07-30T01:54:18.319Z,69061.31
2022-07-30T01:56:47.837Z,69062.06
2022-07-30T01:59:18.484Z,69075.53
2022-07-30T02:01:48.310Z,69065.47
2022-07-30T02:04:16.314Z,69064.38
2022-07-30T02:06:46.364Z,69052.94
2022-07-30T02:09:19.602Z,69054.47
2022-07-30T02:12:05.794Z,69048.75
2022-07-30T02:14:47.230Z,69049.88
2022-07-30T02:17:19.154Z,69045.50
2022-07-30T02:19:50.188Z,69043.06
2022-07-30T02:22:18.935Z,69037.38
2022-07-30T02:24:47.889Z,69040.78
2022-07-30T02:27:20.216Z,69031.28
2022-07-30T02:29:48.572Z,69021.19
2022-07-30T02:32:19.144Z,69030.72
2022-07-30T02:34:48.248Z,69026.13
2022-07-30T02:37:18.672Z,69030.53
2022-07-30T02:40:06.506Z,69038.50
2022-07-30T02:42:33.777Z,69032.97
2022-07-30T02:45:01.312Z,69049.31
2022-07-30T02:47:28.773Z,69046.47
2022-07-30T02:50:02.400Z,69033.16
2022-07-30T02:52:30.140Z,69035.81
2022-07-30T02:54:57.767Z,69042.31
2022-07-30T02:57:25.726Z,69049.88
2022-07-30T02:59:53.296Z,69043.41
2022-07-30T03:02:29.113Z,69037.38
2022-07-30T03:04:57.985Z,69040.59
2022-07-30T03:07:25.280Z,69036.97
2022-07-30T03:09:54.660Z,69037.94
2022-07-30T03:12:21.958Z,69027.13
2022-07-30T03:14:49.287Z,69031.66
2022-07-30T03:17:17.222Z,69043.28
2022-07-30T03:19:45.651Z,69032.97
2022-07-30T03:22:14.775Z,69030.13
2022-07-30T03:24:43.803Z,69040.03
2022-07-30T03:27:10.933Z,69045.72
2022-07-30T03:29:39.525Z,69043.06
2022-07-30T03:32:06.855Z,69036.22
2022-07-30T03:34:35.005Z,69044.38
2022-07-30T03:37:05.743Z,69041.50
2022-07-30T03:39:34.974Z,69034.50
2022-07-30T03:42:03.995Z,69039.81
2022-07-30T03:44:33.360Z,69029.00
2022-07-30T03:47:01.291Z,69037.75
2022-07-30T03:49:30.111Z,69027.28
2022-07-30T03:51:57.644Z,69045.72
2022-07-30T03:54:25.554Z,69031.09
2022-07-30T03:57:10.674Z,69036.63
2022-07-30T03:59:43.556Z,69025.56
2022-07-30T04:02:10.644Z,69018.75
2022-07-30T04:04:58.698Z,69028.25
2022-07-30T04:07:25.770Z,69025.56
2022-07-30T04:09:53.208Z,69020.06
2022-07-30T04:12:30.501Z,69030.13
2022-07-30T04:14:57.868Z,69028.81
2022-07-30T04:17:27.870Z,69027.69
2022-07-30T04:19:57.921Z,69020.44
2022-07-30T04:22:28.273Z,69024.66
2022-07-30T04:24:56.792Z,69018.75
2022-07-30T04:27:25.407Z,69013.63
2022-07-30T04:29:53.577Z,69024.66
2022-07-30T04:32:20.572Z,69019.72
2022-07-30T04:35:11.991Z,69023.09
2022-07-30T04:38:31.497Z,69031.28
2022-07-30T04:40:58.716Z,69033.38
2022-07-30T04:43:28.477Z,69022.16
2022-07-30T04:45:55.793Z,69028.25
2022-07-30T04:48:23.348Z,69022.72
2022-07-30T04:51:18.310Z,69025.97
2022-07-30T04:53:47.030Z,69013.44
2022-07-30T04:56:17.125Z,69024.25
2022-07-30T04:58:44.800Z,69027.50
2022-07-30T05:01:14.159Z,69013.63
2022-07-30T05:03:42.328Z,69018.75
2022-07-30T05:06:11.944Z,69024.25
2022-07-30T05:08:39.841Z,69016.69
2022-07-30T05:11:13.368Z,69021.19
2022-07-30T05:13:41.443Z,69028.06
2022-07-30T05:16:14.025Z,69022.16
2022-07-30T05:18:42.215Z,69028.06
2022-07-30T05:21:10.392Z,69023.31
2022-07-30T05:23:50.151Z,69011.91
2022-07-30T05:26:36.413Z,69002.06
2022-07-30T05:29:06.945Z,68996.38
2022-07-30T05:31:45.412Z,68988.75
2022-07-30T05:34:12.872Z,68987.59
2022-07-30T05:36:45.340Z,68990.66
2022-07-30T05:39:14.532Z,68984.97
2022-07-30T05:42:04.076Z,68974.50
2022-07-30T05:44:41.460Z,68977.00
2022-07-30T05:47:08.546Z,68974.16
2022-07-30T05:49:35.809Z,68973.75
2022-07-30T05:52:13.706Z,68980.81
2022-07-30T05:54:42.017Z,68981.16
2022-07-30T05:57:38.329Z,68974.50
2022-07-30T06:00:07.829Z,68979.28
2022-07-30T06:02:43.880Z,68984.22
2022-07-30T06:05:43.757Z,68983.25
2022-07-30T06:08:10.806Z,68980.03
2022-07-30T06:10:37.885Z,68977.91
2022-07-30T06:13:05.430Z,68984.56
2022-07-30T06:15:32.774Z,68984.00
2022-07-30T06:18:01.804Z,68991.41
2022-07-30T06:20:42.774Z,68990.84
2022-07-30T06:23:19.669Z,68988.16
2022-07-30T06:26:09.622Z,68997.31
2022-07-30T06:28:38.813Z,68996.38
2022-07-30T06:31:15.447Z,69003.38
2022-07-30T06:33:43.661Z,69011.16
2022-07-30T06:36:14.232Z,69020.28
2022-07-30T06:39:02.063Z,69033.94
2022-07-30T06:41:58.608Z,69038.13
2022-07-30T06:44:48.313Z,69040.78
2022-07-30T06:47:29.087Z,69043.22
2022-07-30T06:49:57.620Z,69052.75
2022-07-30T06:52:27.433Z,69059.03
2022-07-30T06:54:55.315Z,69056.53
2022-07-30T06:57:40.119Z,69064.16
2022-07-30T07:00:19.048Z,69067.00
2022-07-30T07:02:46.501Z,69067.19
2022-07-30T07:05:14.745Z,69096.63
2022-07-30T07:07:58.179Z,69096.06
2022-07-30T07:10:33.731Z,69109.16
2022-07-30T07:13:21.044Z,69112.00
2022-07-30T07:15:48.455Z,69105.75
2022-07-30T07:18:19.947Z,69105.19
2022-07-30T07:21:01.323Z,69105.19
2022-07-30T07:23:41.342Z,69109.72
2022-07-30T07:26:20.648Z,69112.19
2022-07-30T07:28:47.762Z,69123.59
2022-07-30T07:32:05.931Z,69123.59
2022-07-30T07:34:13.200Z,69112.00
2022-07-30T07:36:44.253Z,69119.41
2022-07-30T07:39:12.916Z,69117.72
2022-07-30T07:41:48.860Z,69110.28
2022-07-30T07:44:27.683Z,69112.56
2022-07-30T07:46:55.038Z,69102.50
2022-07-30T07:49:25.864Z,69107.63
2022-07-30T07:51:53.331Z,69102.72
2022-07-30T07:54:22.998Z,69100.78
2022-07-30T07:56:57.477Z,69111.59
2022-07-30T07:59:40.505Z,69116.59
2022-07-30T08:02:19.675Z,69097.38
2022-07-30T08:04:56.589Z,69100.03
2022-07-30T08:07:56.477Z,69109.56
2022-07-30T08:10:47.784Z,69111.44
2022-07-30T08:13:48.970Z,69129.66
2022-07-30T08:16:23.915Z,69149.06
2022-07-30T08:19:10.221Z,69130.84
2022-07-30T08:21:40.590Z,69157.63
2022-07-30T08:24:08.933Z,69145.81
2022-07-30T08:26:40.407Z,69139.34
2022-07-30T08:29:14.211Z,69142.38
2022-07-30T08:31:44.779Z,69131.72
2022-07-30T08:34:13.601Z,69120.56
2022-07-30T08:36:41.607Z,69111.97
2022-07-30T08:39:09.345Z,69114.28
2022-07-30T08:41:37.491Z,69109.91
2022-07-30T08:44:15.290Z,69119.81
2022-07-30T08:46:47.813Z,69106.09
2022-07-30T08:49:27.833Z,69111.78
2022-07-30T08:51:56.415Z,69099.66
2022-07-30T08:54:49.820Z,69094.53
2022-07-30T08:57:17.171Z,69096.06
2022-07-30T09:00:00.199Z,69071.59
2022-07-30T09:02:35.872Z,69106.31
2022-07-30T09:05:05.919Z,69089.97
2022-07-30T09:07:58.839Z,69086.38
2022-07-30T09:10:27.090Z,69076.88
2022-07-30T09:12:54.958Z,69060.34
2022-07-30T09:15:23.667Z,69055.59
2022-07-30T09:17:55.359Z,69048.75
2022-07-30T09:20:26.686Z,69043.22
2022-07-30T09:23:00.834Z,69042.66
2022-07-30T09:25:48.869Z,69039.81
2022-07-30T09:28:36.844Z,69034.69
2022-07-30T09:31:20.816Z,69025.41
2022-07-30T09:34:35.404Z,69016.44
2022-07-30T09:37:16.410Z,69020.66
2022-07-30T09:40:18.750Z,69010.59
2022-07-30T09:43:11.258Z,69010.59
2022-07-30T09:46:01.698Z,69003.38
2022-07-30T09:48:30.337Z,69013.41
2022-07-30T09:50:57.922Z,69028.25
2022-07-30T09:53:26.329Z,69029.94
2022-07-30T09:55:53.844Z,69026.72
2022-07-30T09:58:26.546Z,69032.41
2022-07-30T10:01:03.238Z,69041.69
2022-07-30T10:03:55.207Z,69052.19
2022-07-30T10:06:42.382Z,69051.81
2022-07-30T10:09:30.321Z,69049.28
2022-07-30T10:12:00.803Z,69061.31
2022-07-30T10:14:34.148Z,69074.00
2022-07-30T10:17:09.575Z,69076.28
2022-07-30T10:19:40.091Z,69061.09
2022-07-30T10:22:28.778Z,69060.91
2022-07-30T10:25:19.168Z,69063.94
2022-07-30T10:28:12.115Z,69066.19
2022-07-30T10:30:39.907Z,69079.31
2022-07-30T10:33:08.113Z,69088.84
2022-07-30T10:35:38.441Z,69097.38
2022-07-30T10:38:13.833Z,69101.53
2022-07-30T10:40:58.805Z,69103.63
2022-07-30T10:43:38.381Z,69117.31
2022-07-30T10:46:30.707Z,69137.47
2022-07-30T10:49:18.602Z,69141.25
2022-07-30T10:51:48.873Z,69163.88
2022-07-30T10:54:36.592Z,69161.59
2022-07-30T10:57:26.637Z,69166.91
2022-07-30T11:00:00.736Z,69165.97
2022-07-30T11:02:30.699Z,69165.56
2022-07-30T11:05:43.889Z,69177.59
2022-07-30T11:08:31.751Z,69221.25
2022-07-30T11:11:19.244Z,69239.88
2022-07-30T11:14:01.227Z,69254.72
2022-07-30T11:16:34.486Z,69283.66
2022-07-30T11:19:56.837Z,69288.59
2022-07-30T11:22:38.557Z,69288.00
2022-07-30T11:25:12.875Z,69300.97
2022-07-30T11:27:45.837Z,69279.66
2022-07-30T11:30:16.961Z,69292.97
2022-07-30T11:32:48.738Z,69320.03
2022-07-30T11:35:35.201Z,69317.09
2022-07-30T11:38:02.650Z,69335.19
2022-07-30T11:40:34.070Z,69325.31
2022-07-30T11:43:25.596Z,69384.88
2022-07-30T11:46:28.551Z,69433.00
2022-07-30T11:48:59.006Z,69460.06
2022-07-30T11:51:27.138Z,69462.53
2022-07-30T11:54:05.795Z,69467.84
2022-07-30T11:56:33.867Z,69460.22
2022-07-30T11:59:08.263Z,69426.53
2022-07-30T12:01:36.285Z,69407.31
2022-07-30T12:04:09.000Z,69408.28
2022-07-30T12:06:48.809Z,69410.97
2022-07-30T12:09:29.922Z,69419.69
2022-07-30T12:11:57.655Z,69400.06
2022-07-30T12:14:25.216Z,69417.97
2022-07-30T12:16:54.506Z,69403.13
2022-07-30T12:19:22.074Z,69361.25
2022-07-30T12:21:53.034Z,69370.00
2022-07-30T12:24:27.267Z,69336.91
2022-07-30T12:27:08.073Z,69327.75
2022-07-30T12:29:35.912Z,69351.91
2022-07-30T12:32:03.463Z,69371.31
2022-07-30T12:34:30.723Z,69400.84
2022-07-30T12:37:08.092Z,69436.81
2022-07-30T12:39:35.391Z,69451.66
2022-07-30T12:42:03.479Z,69460.81
2022-07-30T12:44:41.067Z,69464.97
2022-07-30T12:47:26.051Z,69477.56
2022-07-30T12:49:55.039Z,69491.25
2022-07-30T12:52:43.334Z,69484.97
2022-07-30T12:55:13.278Z,69474.13
2022-07-30T12:57:57.544Z,69447.47
2022-07-30T13:00:52.948Z,69473.94
2022-07-30T13:03:26.173Z,69481.78
2022-07-30T13:05:55.968Z,69476.25
2022-07-30T13:08:48.829Z,69468.81
2022-07-30T13:11:17.346Z,69472.25
2022-07-30T13:13:52.782Z,69475.09
2022-07-30T13:16:21.039Z,69453.53
2022-07-30T13:18:48.333Z,69442.50
2022-07-30T13:21:15.667Z,69407.50
2022-07-30T13:23:42.970Z,69429.41
2022-07-30T13:26:10.939Z,69416.81
2022-07-30T13:28:39.204Z,69413.00
2022-07-30T13:31:07.734Z,69430.94
2022-07-30T13:33:37.556Z,69421.56
2022-07-30T13:36:06.055Z,69419.09
2022-07-30T13:38:33.679Z,69419.50
2022-07-30T13:41:02.991Z,69395.50
2022-07-30T13:43:33.528Z,69420.41
2022-07-30T13:46:03.175Z,69431.28
2022-07-30T13:48:30.836Z,69403.50
2022-07-30T13:50:59.778Z,69432.81
2022-07-30T13:53:27.206Z,69440.25
2022-07-30T13:55:54.639Z,69439.25
2022-07-30T13:58:22.254Z,69444.97
2022-07-30T14:00:49.439Z,69467.66
2022-07-30T14:03:16.741Z,69498.50
2022-07-30T14:05:44.025Z,69519.66
2022-07-30T14:08:12.251Z,69540.22
2022-07-30T14:10:40.529Z,69629.38
2022-07-30T14:13:10.386Z,69662.16
2022-07-30T14:15:43.002Z,69611.41
2022-07-30T14:18:10.222Z,69621.38
2022-07-30T14:20:37.710Z,69615.09
2022-07-30T14:23:04.936Z,69612.81
2022-07-30T14:25:32.324Z,69607.66
2022-07-30T14:28:00.092Z,69596.81
2022-07-30T14:30:27.297Z,69551.81
2022-07-30T14:33:00.363Z,69513.13
2022-07-30T14:35:29.236Z,69549.34
2022-07-30T14:37:56.648Z,69542.66
2022-07-30T14:40:23.978Z,69541.91
2022-07-30T14:42:51.350Z,69561.56
2022-07-30T14:45:18.535Z,69545.91
2022-07-30T14:47:45.928Z,69529.69
2022-07-30T14:50:13.245Z,69563.25
2022-07-30T14:52:41.195Z,69549.13
2022-07-30T14:55:09.624Z,69581.97
2022-07-30T14:57:37.318Z,69561.72
2022-07-30T15:00:08.534Z,69587.09
2022-07-30T15:02:38.265Z,69588.81
2022-07-30T15:05:06.133Z,69584.06
2022-07-30T15:07:34.883Z,69567.66
2022-07-30T15:10:02.888Z,69548.00
2022-07-30T15:12:30.363Z,69581.78
2022-07-30T15:14:57.704Z,69586.38
2022-07-30T15:17:25.116Z,69562.84
2022-07-30T15:19:52.878Z,69560.56
2022-07-30T15:22:20.739Z,69606.69
2022-07-30T15:24:48.837Z,69603.09
2022-07-30T15:27:16.639Z,69634.38
2022-07-30T15:29:44.601Z,69660.84
2022-07-30T15:32:11.904Z,69660.59
2022-07-30T15:34:39.087Z,69692.28
2022-07-30T15:37:06.404Z,69699.00
2022-07-30T15:39:34.344Z,69694.75
2022-07-30T15:42:03.551Z,69691.16
2022-07-30T15:44:31.189Z,69669.19
2022-07-30T15:46:59.411Z,69679.16
2022-07-30T15:49:28.044Z,69644.25
2022-07-30T15:51:56.009Z,69630.69
2022-07-30T15:54:24.748Z,69650.97
2022-07-30T15:56:54.001Z,69645.97
2022-07-30T15:59:22.126Z,69620.97
2022-07-30T16:01:49.514Z,69634.13
2022-07-30T16:04:19.001Z,69646.69
2022-07-30T16:06:53.616Z,69635.09
2022-07-30T16:09:20.783Z,69598.09
2022-07-30T16:11:49.494Z,69595.25
2022-07-30T16:14:16.815Z,69604.22
2022-07-30T16:16:44.264Z,69591.81
2022-07-30T16:19:11.469Z,69575.25
2022-07-30T16:21:38.716Z,69556.22
2022-07-30T16:24:06.210Z,69530.09
2022-07-30T16:26:35.942Z,69525.94
2022-07-30T16:29:04.823Z,69516.97
2022-07-30T16:31:32.344Z,69506.50
2022-07-30T16:33:59.662Z,69511.66
2022-07-30T16:36:26.915Z,69508.22
2022-07-30T16:38:54.169Z,69503.66
2022-07-30T16:41:21.467Z,69496.78
2022-07-30T16:43:48.666Z,69483.50
2022-07-30T16:46:15.885Z,69462.75
2022-07-30T16:48:46.517Z,69447.47
2022-07-30T16:51:18.189Z,69403.50
2022-07-30T16:53:46.253Z,69428.25
2022-07-30T16:56:14.206Z,69422.13
2022-07-30T16:58:41.414Z,69417.97
2022-07-30T17:01:09.233Z,69418.69
2022-07-30T17:03:36.357Z,69421.38
2022-07-30T17:06:03.580Z,69428.25
2022-07-30T17:08:30.964Z,69429.78
2022-07-30T17:10:58.137Z,69430.78
2022-07-30T17:13:25.441Z,69389.81
2022-07-30T17:15:52.726Z,69412.25
2022-07-30T17:18:19.943Z,69400.06
2022-07-30T17:20:47.223Z,69429.56
2022-07-30T17:23:14.704Z,69437.94
2022-07-30T17:25:42.053Z,69438.69
2022-07-30T17:28:09.525Z,69425.75
2022-07-30T17:30:36.922Z,69446.69
2022-07-30T17:33:06.322Z,69451.81
2022-07-30T17:35:34.293Z,69432.47
2022-07-30T17:38:01.628Z,69403.13
2022-07-30T17:40:31.673Z,69399.13
2022-07-30T17:43:04.149Z,69392.69
2022-07-30T17:45:33.585Z,69365.03
2022-07-30T17:48:01.907Z,69342.59
2022-07-30T17:50:30.497Z,69312.34
2022-07-30T17:52:58.099Z,69289.53
2022-07-30T17:55:25.607Z,69249.44
2022-07-30T17:57:52.986Z,69270.53
2022-07-30T18:00:20.612Z,69258.16
2022-07-30T18:02:48.018Z,69249.78
2022-07-30T18:05:15.866Z,69233.06
2022-07-30T18:07:43.683Z,69224.50
2022-07-30T18:10:11.872Z,69229.22
2022-07-30T18:12:48.958Z,69219.38
2022-07-30T18:15:20.269Z,69214.97
2022-07-30T18:17:47.591Z,69200.56
2022-07-30T18:20:15.394Z,69209.09
2022-07-30T18:22:42.911Z,69189.34
2022-07-30T18:25:17.960Z,69193.13
2022-07-30T18:27:48.041Z,69170.50
2022-07-30T18:30:15.894Z,69177.19
2022-07-30T18:32:44.337Z,69177.75
2022-07-30T18:35:14.508Z,69167.50
2022-07-30T18:37:43.412Z,69130.84
2022-07-30T18:40:13.309Z,69123.44
2022-07-30T18:42:41.924Z,69140.50
2022-07-30T18:45:10.441Z,69124.31
2022-07-30T18:47:37.645Z,69123.75
2022-07-30T18:50:05.456Z,69126.44
2022-07-30T18:52:33.910Z,69110.09
2022-07-30T18:55:01.322Z,69108.38
2022-07-30T18:57:28.622Z,69132.69
2022-07-30T18:59:55.818Z,69079.00
2022-07-30T19:02:25.785Z,69091.28
2022-07-30T19:04:53.887Z,69087.13
2022-07-30T19:07:23.461Z,69081.41
2022-07-30T19:09:53.461Z,69086.16
2022-07-30T19:12:21.063Z,69084.66
2022-07-30T19:14:49.053Z,69051.09
2022-07-30T19:17:16.361Z,69063.75
2022-07-30T19:19:43.656Z,69056.34
2022-07-30T19:22:11.209Z,69066.59
2022-07-30T19:24:38.439Z,69059.94
2022-07-30T19:27:05.897Z,69055.97
2022-07-30T19:29:33.084Z,69052.53
2022-07-30T19:32:00.722Z,69058.06
2022-07-30T19:34:28.377Z,69050.66
2022-07-30T19:36:55.600Z,69047.97
2022-07-30T19:39:22.862Z,69054.47
2022-07-30T19:41:54.118Z,69046.66
2022-07-30T19:44:21.350Z,69037.53
2022-07-30T19:46:51.447Z,69030.13
2022-07-30T19:49:22.175Z,69036.22
2022-07-30T19:54:44.049Z,69020.63
2022-07-30T19:57:11.276Z,69016.44
2022-07-30T19:59:49.414Z,69024.44
2022-07-30T20:02:26.001Z,69010.94
2022-07-30T20:04:53.917Z,68978.75
2022-07-30T20:07:22.088Z,68999.38
2022-07-30T20:09:55.192Z,68984.75
2022-07-30T20:12:24.209Z,68991.78
2022-07-30T20:14:51.672Z,68990.06
2022-07-30T20:17:19.026Z,68991.78
2022-07-30T20:19:47.892Z,68990.84
2022-07-30T20:22:17.038Z,68991.78
2022-07-30T20:24:48.720Z,68985.13
2022-07-30T20:27:37.113Z,68990.09
2022-07-30T20:30:04.781Z,68987.44
2022-07-30T20:32:32.058Z,68984.56
2022-07-30T20:34:59.637Z,68979.44
2022-07-30T20:37:27.777Z,68981.16
2022-07-30T20:39:56.044Z,68965.97
2022-07-30T20:42:24.174Z,68969.19
2022-07-30T20:44:56.953Z,68968.44
2022-07-30T20:47:33.391Z,68973.59
2022-07-30T20:50:09.981Z,68953.84
2022-07-30T20:52:46.607Z,68953.84
2022-07-30T20:55:22.048Z,68945.47
2022-07-30T20:57:58.712Z,68963.16
2022-07-30T21:00:29.608Z,68956.69
2022-07-30T21:02:57.156Z,68966.75
2022-07-30T21:05:27.113Z,68955.38
2022-07-30T21:07:54.607Z,68958.41
2022-07-30T21:10:23.618Z,68950.81
2022-07-30T21:15:45.628Z,68949.69
2022-07-30T21:18:26.456Z,68939.78
2022-07-30T21:20:53.720Z,68944.75
2022-07-30T21:23:24.755Z,68947.56
2022-07-30T21:26:00.834Z,68949.84
2022-07-30T21:28:35.918Z,68948.13
2022-07-30T21:31:07.154Z,68935.78
2022-07-30T21:33:36.607Z,68934.47
2022-07-30T21:36:05.012Z,68937.91
2022-07-30T21:39:50.373Z,68934.47
2022-07-30T21:42:17.623Z,68937.50
2022-07-30T21:44:53.223Z,68936.19
2022-07-30T21:47:20.485Z,68940.16
2022-07-30T21:49:47.911Z,68940.56
2022-07-30T21:52:15.879Z,68939.81
2022-07-30T21:54:45.162Z,68939.03
2022-07-30T21:57:34.540Z,68939.03
2022-07-30T22:00:08.228Z,68930.69
2022-07-30T22:02:38.751Z,68927.66
2022-07-30T22:05:21.653Z,68924.03
2022-07-30T22:07:50.535Z,68924.78
2022-07-30T22:10:21.449Z,68919.66
2022-07-30T22:12:49.094Z,68913.78
2022-07-30T22:15:18.388Z,68918.53
2022-07-30T22:17:58.627Z,68913.97
2022-07-30T22:20:29.508Z,68910.00
2022-07-30T22:23:01.936Z,68913.22
2022-07-30T22:25:41.663Z,68912.84
2022-07-30T22:28:13.822Z,68911.72
2022-07-30T22:30:44.242Z,68909.81
2022-07-30T22:33:17.642Z,68911.72
2022-07-30T22:35:49.640Z,68915.69
2022-07-30T22:38:19.390Z,68906.00
2022-07-30T22:40:47.599Z,68903.72
2022-07-30T22:43:16.796Z,68899.94
2022-07-30T22:45:48.907Z,68902.03
2022-07-30T22:48:19.436Z,68900.31
2022-07-30T22:50:53.072Z,68895.19
2022-07-30T22:54:11.194Z,68892.34
2022-07-30T22:56:14.068Z,68887.41
2022-07-30T22:58:43.095Z,68894.03
2022-07-30T23:01:10.875Z,68899.19
2022-07-30T23:03:38.330Z,68891.78
2022-07-30T23:06:05.553Z,68887.78
2022-07-30T23:08:33.917Z,68887.22
2022-07-30T23:11:01.214Z,68893.13
2022-07-30T23:12:15.294Z,69039.06
2022-07-30T23:12:32.161Z,68954.22
2022-07-30T23:13:29.339Z,68878.88
2022-07-30T23:15:56.496Z,68884.97
2022-07-30T23:18:23.830Z,68887.78
2022-07-30T23:20:51.041Z,68868.06
2022-07-30T23:23:18.360Z,68869.19
2022-07-30T23:25:45.640Z,68861.81
2022-07-30T23:28:12.941Z,68868.44
2022-07-30T23:30:40.134Z,68865.78
2022-07-30T23:33:07.295Z,68874.69
2022-07-30T23:35:34.547Z,68869.59
2022-07-30T23:38:02.229Z,68870.91
2022-07-30T23:40:29.516Z,68890.06
2022-07-30T23:42:56.770Z,68887.03
2022-07-30T23:45:24.076Z,68883.63
2022-07-30T23:48:02.774Z,68886.47
2022-07-30T23:50:32.061Z,68876.41
2022-07-30T23:53:00.494Z,68879.25
2022-07-30T23:55:28.759Z,68878.50
2022-07-30T23:57:56.339Z,68883.81
